createdAt,value
2018-08-17T00:01:24.737Z,54.30
2018-08-17T00:03:54.400Z,54.30
2018-08-17T00:06:22.786Z,54.30
2018-08-17T00:08:51.488Z,54.30
2018-08-17T00:11:20.014Z,54.40
2018-08-17T00:13:48.661Z,54.30
2018-08-17T00:16:17.171Z,54.30
2018-08-17T00:18:45.887Z,54.30
2018-08-17T00:21:14.441Z,54.30
2018-08-17T00:23:42.893Z,54.30
2018-08-17T00:26:11.353Z,54.30
2018-08-17T00:28:40.076Z,54.30
2018-08-17T00:31:08.616Z,54.30
2018-08-17T00:33:37.328Z,54.30
2018-08-17T00:36:05.837Z,54.30
2018-08-17T00:38:34.403Z,54.30
2018-08-17T00:41:02.953Z,54.30
2018-08-17T00:43:31.410Z,54.30
2018-08-17T00:45:59.867Z,54.30
2018-08-17T00:48:29.157Z,54.30
2018-08-17T00:50:58.602Z,54.30
2018-08-17T00:53:27.308Z,54.30
2018-08-17T00:55:56.226Z,54.30
2018-08-17T00:58:24.748Z,54.30
2018-08-17T01:00:53.387Z,54.30
2018-08-17T01:03:21.809Z,54.30
2018-08-17T01:05:50.558Z,54.30
2018-08-17T01:08:19.031Z,54.40
2018-08-17T01:10:47.549Z,54.30
2018-08-17T01:13:15.935Z,54.30
2018-08-17T01:15:44.536Z,54.30
2018-08-17T01:18:13.607Z,54.30
2018-08-17T01:20:42.133Z,54.30
2018-08-17T01:23:10.742Z,54.30
2018-08-17T01:25:39.346Z,54.30
2018-08-17T01:28:08.728Z,54.30
2018-08-17T01:30:37.200Z,54.40
2018-08-17T01:33:05.846Z,54.30
2018-08-17T01:35:34.345Z,54.30
2018-08-17T01:38:03.008Z,54.30
2018-08-17T01:40:32.674Z,54.30
2018-08-17T01:43:01.225Z,54.30
2018-08-17T01:45:29.819Z,54.30
2018-08-17T01:47:58.495Z,54.40
2018-08-17T01:50:27.030Z,54.30
2018-08-17T01:52:55.574Z,54.30
2018-08-17T01:55:24.148Z,54.30
2018-08-17T01:57:52.784Z,54.30
2018-08-17T02:00:21.322Z,54.30
2018-08-17T02:02:49.721Z,54.30
2018-08-17T02:05:18.221Z,54.30
2018-08-17T02:07:46.747Z,54.30
2018-08-17T02:10:15.492Z,54.30
2018-08-17T02:12:43.876Z,54.30
2018-08-17T02:15:12.372Z,54.30
2018-08-17T02:17:41.164Z,54.30
2018-08-17T02:20:09.638Z,54.30
2018-08-17T02:22:38.420Z,54.30
2018-08-17T02:25:07.089Z,54.30
2018-08-17T02:27:35.712Z,54.30
2018-08-17T02:30:04.776Z,54.30
2018-08-17T02:32:33.261Z,54.40
2018-08-17T02:35:01.861Z,54.30
2018-08-17T02:37:30.645Z,54.40
2018-08-17T02:39:59.211Z,54.70
2018-08-17T02:42:27.708Z,54.30
2018-08-17T02:44:57.329Z,54.30
2018-08-17T02:47:25.849Z,54.40
2018-08-17T02:49:54.530Z,54.30
2018-08-17T02:52:22.981Z,54.40
2018-08-17T02:54:51.581Z,54.30
2018-08-17T02:57:20.319Z,54.30
2018-08-17T02:59:48.821Z,54.40
2018-08-17T03:02:17.288Z,54.30
2018-08-17T03:04:45.838Z,54.30
2018-08-17T03:07:14.268Z,54.40
2018-08-17T03:09:42.757Z,54.40
2018-08-17T03:12:11.205Z,54.30
2018-08-17T03:14:39.868Z,54.30
2018-08-17T03:17:08.375Z,54.30
2018-08-17T03:19:36.964Z,54.30
2018-08-17T03:22:05.915Z,54.30
2018-08-17T03:24:34.343Z,54.40
2018-08-17T03:27:03.026Z,54.40
2018-08-17T03:29:31.556Z,54.30
2018-08-17T03:32:00.042Z,54.30
2018-08-17T03:34:28.648Z,54.30
2018-08-17T03:36:57.321Z,54.40
2018-08-17T03:39:25.810Z,54.30
2018-08-17T03:41:54.470Z,54.30
2018-08-17T03:44:23.068Z,54.30
2018-08-17T03:46:51.812Z,54.40
2018-08-17T03:49:20.315Z,54.40
2018-08-17T03:51:48.996Z,54.40
2018-08-17T03:54:17.491Z,54.30
2018-08-17T03:56:45.944Z,54.40
2018-08-17T03:59:14.577Z,54.30
2018-08-17T04:01:43.163Z,54.30
2018-08-17T04:04:11.653Z,54.30
2018-08-17T04:06:40.229Z,54.40
2018-08-17T04:09:09.989Z,54.40
2018-08-17T04:11:39.614Z,54.40
2018-08-17T04:14:08.369Z,54.80
2018-08-17T04:16:36.863Z,54.40
2018-08-17T04:19:05.601Z,54.40
2018-08-17T04:21:36.247Z,54.40
2018-08-17T04:24:05.645Z,54.40
2018-08-17T04:26:35.766Z,54.40
2018-08-17T04:29:04.465Z,54.30
2018-08-17T04:31:34.409Z,54.40
2018-08-17T04:34:03.836Z,54.40
2018-08-17T04:36:33.035Z,54.30
2018-08-17T04:39:01.662Z,54.30
2018-08-17T04:41:32.907Z,54.40
2018-08-17T04:44:01.453Z,54.30
2018-08-17T04:46:30.305Z,54.30
2018-08-17T04:48:58.857Z,54.30
2018-08-17T04:51:28.601Z,54.30
2018-08-17T04:53:59.935Z,54.30
2018-08-17T04:56:30.203Z,54.30
2018-08-17T04:59:05.404Z,54.30
2018-08-17T05:01:36.682Z,54.40
2018-08-17T05:04:05.622Z,54.40
2018-08-17T05:06:34.508Z,54.40
2018-08-17T05:09:05.090Z,54.40
2018-08-17T05:11:33.808Z,54.40
2018-08-17T05:14:02.351Z,54.40
2018-08-17T05:16:31.341Z,54.40
2018-08-17T05:18:59.824Z,54.40
2018-08-17T05:21:28.364Z,54.30
2018-08-17T05:23:57.018Z,54.40
2018-08-17T05:26:25.603Z,54.40
2018-08-17T05:28:54.025Z,54.40
2018-08-17T05:31:22.469Z,54.40
2018-08-17T05:33:50.884Z,54.30
2018-08-17T05:36:19.410Z,54.00
2018-08-17T05:38:47.831Z,54.40
2018-08-17T05:41:16.489Z,54.30
2018-08-17T05:43:44.893Z,54.30
2018-08-17T05:46:13.284Z,54.40
2018-08-17T05:48:41.712Z,54.40
2018-08-17T05:51:10.168Z,54.40
2018-08-17T05:53:38.659Z,54.40
2018-08-17T05:56:07.110Z,54.30
2018-08-17T05:58:35.564Z,54.30
2018-08-17T06:01:03.985Z,54.40
2018-08-17T06:03:32.664Z,54.40
2018-08-17T06:06:01.052Z,54.30
2018-08-17T06:08:29.472Z,54.40
2018-08-17T06:10:58.369Z,54.30
2018-08-17T06:13:26.806Z,54.40
2018-08-17T06:15:55.270Z,54.30
2018-08-17T06:18:23.676Z,54.40
2018-08-17T06:20:52.134Z,54.40
2018-08-17T06:23:20.617Z,54.30
2018-08-17T06:25:49.638Z,54.30
2018-08-17T06:28:18.033Z,54.40
2018-08-17T06:30:46.456Z,54.30
2018-08-17T06:33:14.876Z,54.40
2018-08-17T06:35:43.364Z,54.30
2018-08-17T06:38:11.805Z,54.30
2018-08-17T06:40:40.512Z,54.30
2018-08-17T06:43:09.062Z,54.30
2018-08-17T06:45:37.691Z,54.30
2018-08-17T06:48:06.315Z,54.30
2018-08-17T06:50:35.064Z,54.30
2018-08-17T06:53:03.493Z,54.30
2018-08-17T06:55:31.956Z,54.30
2018-08-17T06:58:00.461Z,54.30
2018-08-17T07:00:29.031Z,54.40
2018-08-17T07:02:57.513Z,54.30
2018-08-17T07:05:25.980Z,54.40
2018-08-17T07:07:54.441Z,54.30
2018-08-17T07:10:22.861Z,54.40
2018-08-17T07:12:51.321Z,54.30
2018-08-17T07:15:19.933Z,54.40
2018-08-17T07:17:48.613Z,54.40
2018-08-17T07:20:17.023Z,54.30
2018-08-17T07:22:45.540Z,54.30
2018-08-17T07:25:14.196Z,54.30
2018-08-17T07:27:42.882Z,54.30
2018-08-17T07:30:11.244Z,54.40
2018-08-17T07:32:40.890Z,55.00
2018-08-17T07:35:10.304Z,54.40
2018-08-17T07:37:39.052Z,54.30
2018-08-17T07:40:08.081Z,54.30
2018-08-17T07:42:36.550Z,54.30
2018-08-17T07:45:05.441Z,54.30
2018-08-17T07:47:33.928Z,54.30
2018-08-17T07:50:02.385Z,54.30
2018-08-17T07:52:30.865Z,54.30
2018-08-17T07:54:59.416Z,54.30
2018-08-17T07:57:27.878Z,54.40
2018-08-17T07:59:56.260Z,54.30
2018-08-17T08:02:24.733Z,54.40
2018-08-17T08:04:53.161Z,54.30
2018-08-17T08:07:21.574Z,54.30
2018-08-17T08:09:50.026Z,54.30
2018-08-17T08:12:18.622Z,54.30
2018-08-17T08:14:47.055Z,54.30
2018-08-17T08:17:15.484Z,54.40
2018-08-17T08:19:43.885Z,54.30
2018-08-17T08:22:12.378Z,54.30
2018-08-17T08:24:40.861Z,54.30
2018-08-17T08:27:09.339Z,54.30
2018-08-17T08:29:37.908Z,54.40
2018-08-17T08:32:06.549Z,54.40
2018-08-17T08:34:35.089Z,54.40
2018-08-17T08:37:10.160Z,54.40
2018-08-17T08:39:39.871Z,54.40
2018-08-17T08:42:09.097Z,54.40
2018-08-17T08:44:37.646Z,54.40
2018-08-17T08:47:06.152Z,54.50
2018-08-17T08:49:34.708Z,54.40
2018-08-17T08:52:03.154Z,54.40
2018-08-17T08:54:31.765Z,54.40
2018-08-17T08:57:00.207Z,54.40
2018-08-17T08:59:28.752Z,54.30
2018-08-17T09:01:57.176Z,54.30
2018-08-17T09:04:25.635Z,54.40
2018-08-17T09:06:54.073Z,54.30
2018-08-17T09:09:22.573Z,54.30
2018-08-17T09:11:51.000Z,54.40
2018-08-17T09:14:19.868Z,54.40
2018-08-17T09:16:48.408Z,54.30
2018-08-17T09:19:16.933Z,54.30
2018-08-17T09:21:45.429Z,54.30
2018-08-17T09:24:13.944Z,54.30
2018-08-17T09:26:42.393Z,54.40
2018-08-17T09:29:10.981Z,54.30
2018-08-17T09:31:39.599Z,54.30
2018-08-17T09:34:08.192Z,54.30
2018-08-17T09:36:36.691Z,54.30
2018-08-17T09:39:07.342Z,54.30
2018-08-17T09:41:35.881Z,54.30
2018-08-17T09:44:04.460Z,54.30
2018-08-17T09:46:32.891Z,54.30
2018-08-17T09:49:01.478Z,54.30
2018-08-17T09:51:30.059Z,54.30
2018-08-17T09:53:58.445Z,54.30
2018-08-17T09:56:26.891Z,54.30
2018-08-17T09:58:55.336Z,54.30
2018-08-17T10:01:29.208Z,54.30
2018-08-17T10:04:03.060Z,54.30
2018-08-17T10:06:37.008Z,54.30
2018-08-17T10:10:15.894Z,54.30
2018-08-17T10:12:44.712Z,54.30
2018-08-17T10:15:13.244Z,54.40
2018-08-17T10:17:41.736Z,54.40
2018-08-17T10:20:14.657Z,54.40
2018-08-17T10:22:43.425Z,54.40
2018-08-17T10:25:17.157Z,54.40
2018-08-17T10:27:47.143Z,54.40
2018-08-17T10:30:15.915Z,54.40
2018-08-17T10:32:48.593Z,54.30
2018-08-17T10:35:32.726Z,54.30
2018-08-17T10:38:02.309Z,54.30
2018-08-17T10:40:30.710Z,54.30
2018-08-17T10:43:01.209Z,54.40
2018-08-17T10:45:30.013Z,55.00
2018-08-17T10:47:58.709Z,54.30
2018-08-17T10:50:33.604Z,54.30
2018-08-17T10:53:03.485Z,54.30
2018-08-17T10:55:48.636Z,54.30
2018-08-17T10:58:18.353Z,54.40
2018-08-17T11:00:46.830Z,54.30
2018-08-17T11:03:15.225Z,54.30
2018-08-17T11:05:43.825Z,54.30
2018-08-17T11:08:12.320Z,54.30
2018-08-17T11:10:40.868Z,54.30
2018-08-17T11:13:09.293Z,54.30
2018-08-17T11:15:37.798Z,54.30
2018-08-17T11:18:06.299Z,54.30
2018-08-17T11:20:34.900Z,54.30
2018-08-17T11:23:03.311Z,54.30
2018-08-17T11:25:31.776Z,54.30
2018-08-17T11:28:00.242Z,54.30
2018-08-17T11:30:28.643Z,54.30
2018-08-17T11:32:57.272Z,54.30
2018-08-17T11:35:25.791Z,54.30
2018-08-17T11:37:54.297Z,54.30
2018-08-17T11:40:22.951Z,54.30
2018-08-17T11:42:51.757Z,54.30
2018-08-17T11:45:21.605Z,54.30
2018-08-17T11:47:50.432Z,54.30
2018-08-17T11:50:20.524Z,54.30
2018-08-17T11:52:54.193Z,54.30
2018-08-17T11:55:23.737Z,54.30
2018-08-17T11:57:52.616Z,54.30
2018-08-17T12:00:21.129Z,54.30
2018-08-17T12:02:49.637Z,54.30
2018-08-17T12:05:18.108Z,54.30
2018-08-17T12:07:47.296Z,54.40
2018-08-17T12:10:16.061Z,54.30
2018-08-17T12:12:45.553Z,54.30
2018-08-17T12:15:14.662Z,54.30
2018-08-17T12:17:43.204Z,54.30
2018-08-17T12:20:11.945Z,54.30
2018-08-17T12:22:40.373Z,54.30
2018-08-17T12:25:09.466Z,54.40
2018-08-17T12:27:38.129Z,54.30
2018-08-17T12:30:07.832Z,54.30
2018-08-17T12:32:36.248Z,54.30
2018-08-17T12:35:04.786Z,54.30
2018-08-17T12:37:33.279Z,54.30
2018-08-17T12:40:02.098Z,54.30
2018-08-17T12:42:31.526Z,54.20
2018-08-17T12:45:05.485Z,54.30
2018-08-17T12:47:34.002Z,54.30
2018-08-17T12:50:02.544Z,54.30
2018-08-17T12:52:31.125Z,54.30
2018-08-17T12:54:59.777Z,54.30
2018-08-17T12:57:33.582Z,54.30
2018-08-17T13:00:02.317Z,54.30
2018-08-17T13:02:30.772Z,54.30
2018-08-17T13:04:59.437Z,54.30
2018-08-17T13:07:28.296Z,54.30
2018-08-17T13:09:56.773Z,54.30
2018-08-17T13:12:25.449Z,54.20
2018-08-17T13:14:54.035Z,54.30
2018-08-17T13:17:22.605Z,54.30
2018-08-17T13:19:51.277Z,54.30
2018-08-17T13:24:32.296Z,54.30
2018-08-17T13:27:00.752Z,54.40
2018-08-17T13:29:29.393Z,54.30
2018-08-17T13:31:57.969Z,54.30
2018-08-17T13:34:27.662Z,54.30
2018-08-17T13:36:58.717Z,54.40
2018-08-17T13:39:28.732Z,54.50
2018-08-17T13:41:58.507Z,54.60
2018-08-17T13:44:28.048Z,54.80
2018-08-17T13:46:57.319Z,54.80
2018-08-17T13:49:25.977Z,54.90
2018-08-17T13:51:54.629Z,54.90
2018-08-17T13:54:23.155Z,54.90
2018-08-17T13:56:51.661Z,54.90
2018-08-17T13:59:20.113Z,55.00
2018-08-17T14:01:48.727Z,55.00
2018-08-17T14:04:17.145Z,54.90
2018-08-17T14:06:45.820Z,55.00
2018-08-17T14:09:14.415Z,55.00
2018-08-17T14:11:42.969Z,55.00
2018-08-17T14:14:11.485Z,54.90
2018-08-17T14:16:40.794Z,54.90
2018-08-17T14:19:09.281Z,54.90
2018-08-17T14:21:38.242Z,55.50
2018-08-17T14:24:06.698Z,55.00
2018-08-17T14:26:35.131Z,54.80
2018-08-17T14:29:04.202Z,54.90
2018-08-17T14:31:32.761Z,54.80
2018-08-17T14:34:01.280Z,54.80
2018-08-17T14:36:29.726Z,54.80
2018-08-17T14:38:58.496Z,54.80
2018-08-17T14:41:27.846Z,54.80
2018-08-17T14:43:58.047Z,54.80
2018-08-17T14:46:28.187Z,54.80
2018-08-17T14:48:57.216Z,54.90
2018-08-17T14:51:26.574Z,54.80
2018-08-17T14:53:55.117Z,54.80
2018-08-17T14:56:23.520Z,54.80
2018-08-17T14:58:52.144Z,54.80
2018-08-17T15:01:20.661Z,54.80
2018-08-17T15:03:49.168Z,54.80
2018-08-17T15:06:17.614Z,54.80
2018-08-17T15:08:46.104Z,55.00
2018-08-17T15:11:14.718Z,55.00
2018-08-17T15:13:43.417Z,55.00
2018-08-17T15:16:11.948Z,54.90
2018-08-17T15:18:40.648Z,54.90
2018-08-17T15:21:09.360Z,54.90
2018-08-17T15:23:38.142Z,55.00
2018-08-17T15:26:07.513Z,54.90
2018-08-17T15:28:37.284Z,54.90
2018-08-17T15:31:09.783Z,55.00
2018-08-17T15:33:40.155Z,55.00
2018-08-17T15:36:11.343Z,55.10
2018-08-17T15:38:43.069Z,55.20
2018-08-17T15:41:15.063Z,55.20
2018-08-17T15:43:44.333Z,55.30
2018-08-17T15:46:15.199Z,55.20
2018-08-17T15:48:55.067Z,55.10
2018-08-17T15:51:25.508Z,55.10
2018-08-17T15:53:57.207Z,55.80
2018-08-17T15:56:32.289Z,55.10
2018-08-17T15:59:02.440Z,55.10
2018-08-17T16:01:31.395Z,55.20
2018-08-17T16:04:00.863Z,55.10
2018-08-17T16:06:32.163Z,55.10
2018-08-17T16:09:00.806Z,55.10
2018-08-17T16:11:32.138Z,55.20
2018-08-17T16:14:00.925Z,55.80
2018-08-17T16:16:32.405Z,55.10
2018-08-17T16:19:04.613Z,55.10
2018-08-17T16:21:34.839Z,55.10
2018-08-17T16:24:04.949Z,55.10
2018-08-17T16:26:33.891Z,55.10
2018-08-17T16:29:06.093Z,55.10
2018-08-17T16:31:43.101Z,55.10
2018-08-17T16:34:13.679Z,55.10
2018-08-17T16:36:45.123Z,55.10
2018-08-17T16:39:16.038Z,55.10
2018-08-17T16:41:44.615Z,55.10
2018-08-17T16:44:14.249Z,55.10
2018-08-17T16:46:43.532Z,55.20
2018-08-17T16:49:12.709Z,55.20
2018-08-17T16:51:41.265Z,55.20
2018-08-17T16:54:10.013Z,55.70
2018-08-17T16:56:41.219Z,55.40
2018-08-17T16:59:13.796Z,55.50
2018-08-17T17:01:43.939Z,55.10
2018-08-17T17:04:19.847Z,55.20
2018-08-17T17:06:48.407Z,55.10
2018-08-17T17:09:17.047Z,55.10
2018-08-17T17:11:45.804Z,55.10
2018-08-17T17:14:16.011Z,55.20
2018-08-17T17:16:47.629Z,55.50
2018-08-17T17:19:18.993Z,55.20
2018-08-17T17:21:48.627Z,55.90
2018-08-17T17:24:18.126Z,55.20
2018-08-17T17:26:46.841Z,55.10
2018-08-17T17:29:15.322Z,55.10
2018-08-17T17:31:47.147Z,55.10
2018-08-17T17:34:15.702Z,55.10
2018-08-17T17:36:44.419Z,55.10
2018-08-17T17:39:14.115Z,55.10
2018-08-17T17:41:43.083Z,55.10
2018-08-17T17:44:11.730Z,55.10
2018-08-17T17:46:41.439Z,55.10
2018-08-17T17:49:10.592Z,55.10
2018-08-17T17:51:40.128Z,55.10
2018-08-17T17:54:08.898Z,55.10
2018-08-17T17:56:37.453Z,55.10
2018-08-17T17:59:11.144Z,55.60
2018-08-17T18:01:40.014Z,55.10
2018-08-17T18:04:08.638Z,55.10
2018-08-17T18:06:37.119Z,55.10
2018-08-17T18:09:06.489Z,55.10
2018-08-17T18:11:35.081Z,55.60
2018-08-17T18:14:05.405Z,55.10
2018-08-17T18:16:34.013Z,55.10
2018-08-17T18:19:02.544Z,55.10
2018-08-17T18:21:32.896Z,55.10
2018-08-17T18:24:15.953Z,55.00
2018-08-17T18:26:48.173Z,55.00
2018-08-17T18:29:17.119Z,55.00
2018-08-17T18:31:45.918Z,55.10
2018-08-17T18:34:15.128Z,55.00
2018-08-17T18:36:43.858Z,55.00
2018-08-17T18:39:14.748Z,55.00
2018-08-17T18:41:43.299Z,54.90
2018-08-17T18:44:13.148Z,55.00
2018-08-17T18:46:41.650Z,54.90
2018-08-17T18:49:10.126Z,54.90
2018-08-17T18:51:39.057Z,54.90
2018-08-17T18:54:07.550Z,54.90
2018-08-17T18:56:36.376Z,55.50
2018-08-17T18:59:04.840Z,54.90
2018-08-17T19:01:33.449Z,54.90
2018-08-17T19:04:02.010Z,54.90
2018-08-17T19:06:30.464Z,54.90
2018-08-17T19:08:59.068Z,54.90
2018-08-17T19:11:27.516Z,55.00
2018-08-17T19:13:55.950Z,54.90
2018-08-17T19:16:24.569Z,54.90
2018-08-17T19:18:53.345Z,55.00
2018-08-17T19:21:21.857Z,55.00
2018-08-17T19:23:50.317Z,55.00
2018-08-17T19:26:18.880Z,55.00
2018-08-17T19:28:51.824Z,55.00
2018-08-17T19:31:20.551Z,55.00
2018-08-17T19:33:49.105Z,55.00
2018-08-17T19:36:17.577Z,55.30
2018-08-17T19:38:46.094Z,55.00
2018-08-17T19:41:14.605Z,55.00
2018-08-17T19:43:43.215Z,54.90
2018-08-17T19:46:11.950Z,55.00
2018-08-17T19:48:40.487Z,54.90
2018-08-17T19:51:14.447Z,54.90
2018-08-17T19:53:42.836Z,55.50
2018-08-17T19:56:11.213Z,54.90
2018-08-17T19:58:40.560Z,54.90
2018-08-17T20:01:09.079Z,54.90
2018-08-17T20:03:37.718Z,54.90
2018-08-17T20:06:06.209Z,54.90
2018-08-17T20:08:34.638Z,54.90
2018-08-17T20:11:03.073Z,54.90
2018-08-17T20:13:31.570Z,54.90
2018-08-17T20:16:00.101Z,54.90
2018-08-17T20:18:28.724Z,54.90
2018-08-17T20:20:57.146Z,54.90
2018-08-17T20:23:25.618Z,54.90
2018-08-17T20:25:54.294Z,54.90
2018-08-17T20:28:22.612Z,54.90
2018-08-17T20:30:51.232Z,54.90
2018-08-17T20:33:26.931Z,54.90
2018-08-17T20:35:56.018Z,54.90
2018-08-17T20:38:24.505Z,54.90
2018-08-17T20:40:57.904Z,54.90
2018-08-17T20:43:26.876Z,54.90
2018-08-17T20:45:55.339Z,54.90
2018-08-17T20:48:23.849Z,54.90
2018-08-17T20:50:52.353Z,54.90
2018-08-17T20:53:20.790Z,55.50
2018-08-17T20:55:49.244Z,54.90
2018-08-17T20:58:17.780Z,54.90
2018-08-17T21:00:46.237Z,54.90
2018-08-17T21:03:14.644Z,54.90
2018-08-17T21:05:43.313Z,54.90
2018-08-17T21:08:11.742Z,54.90
2018-08-17T21:10:40.442Z,54.80
2018-08-17T21:13:08.912Z,54.90
2018-08-17T21:15:38.032Z,54.90
2018-08-17T21:18:06.577Z,54.80
2018-08-17T21:20:35.053Z,54.80
2018-08-17T21:23:03.585Z,54.90
2018-08-17T21:25:31.981Z,54.80
2018-08-17T21:28:00.587Z,54.80
2018-08-17T21:30:29.116Z,54.80
2018-08-17T21:32:57.516Z,54.80
2018-08-17T21:35:27.825Z,54.90
2018-08-17T21:37:56.595Z,54.90
2018-08-17T21:40:30.085Z,54.90
2018-08-17T21:43:00.401Z,54.80
2018-08-17T21:45:28.854Z,54.90
2018-08-17T21:47:57.279Z,54.90
2018-08-17T21:50:25.781Z,54.80
2018-08-17T21:52:54.263Z,54.80
2018-08-17T21:55:22.735Z,54.80
2018-08-17T21:57:51.449Z,54.80
2018-08-17T22:00:27.005Z,54.80
2018-08-17T22:02:55.429Z,54.80
2018-08-17T22:05:28.477Z,54.80
2018-08-17T22:07:56.962Z,54.80
2018-08-17T22:10:25.450Z,54.80
2018-08-17T22:12:53.872Z,54.80
2018-08-17T22:15:22.589Z,54.80
2018-08-17T22:17:51.072Z,54.80
2018-08-17T22:20:19.517Z,54.80
2018-08-17T22:22:48.089Z,54.80
2018-08-17T22:25:17.910Z,54.80
2018-08-17T22:27:48.998Z,54.80
2018-08-17T22:30:20.752Z,54.80
2018-08-17T22:32:49.422Z,54.80
2018-08-17T22:35:18.092Z,54.80
2018-08-17T22:37:46.619Z,54.80
2018-08-17T22:40:15.222Z,54.80
2018-08-17T22:42:46.392Z,54.80
2018-08-17T22:45:14.860Z,54.80
2018-08-17T22:47:45.663Z,54.80
2018-08-17T22:50:14.174Z,54.80
2018-08-17T22:52:42.596Z,54.80
2018-08-17T22:55:11.156Z,54.80
2018-08-17T22:57:39.873Z,54.80
2018-08-17T23:00:23.459Z,54.80
2018-08-17T23:02:53.124Z,54.80
2018-08-17T23:05:25.763Z,54.80
2018-08-17T23:07:54.323Z,54.80
2018-08-17T23:10:24.051Z,54.80
2018-08-17T23:12:53.317Z,54.80
2018-08-17T23:15:21.735Z,54.80
2018-08-17T23:17:52.461Z,54.80
2018-08-17T23:20:26.169Z,54.80
2018-08-17T23:22:55.783Z,54.80
2018-08-17T23:25:24.224Z,54.80
2018-08-17T23:27:52.920Z,54.80
2018-08-17T23:30:21.497Z,54.80
2018-08-17T23:32:50.083Z,54.80
2018-08-17T23:35:18.482Z,54.80
2018-08-17T23:37:47.134Z,55.40
2018-08-17T23:40:15.932Z,54.80
2018-08-17T23:42:44.543Z,54.80
2018-08-17T23:45:16.759Z,54.80
2018-08-17T23:47:45.288Z,54.80
2018-08-17T23:50:14.964Z,55.40
2018-08-17T23:52:43.596Z,54.80
2018-08-17T23:55:15.009Z,54.80
2018-08-17T23:57:43.647Z,54.80
